Relevés horaires Koksijde (Belgique)


Relevés horaires à Koksijde - Vendredi 19 Mai 2023
Heure UTC1 Température [°C] Vent [km/h] Hum. [%] Pres.4 [hPa] Visi. [Km] Nébu. [octa] Préc.5 [mm] Cond.
2m. Res. Ros. Dir.2 Vit. Moy. Raf.3
23:00 12.0 10.9 9.9 NNE 11.1 -- 18.5 87 1025(0.0/3h) 13 -- -- --
22:00 12.0 10.9 8.2 NNE 11.1 -- 16.7 78 1025.2(0.3/3h) 19 -- -- --
21:00 11.9 11 8.3 NNE 9.3 -- 18.5 79 1025.4(0.4/3h) 19 -- -- --
20:00 12.1 11 8.6 NNE 11.1 -- 16.7 79 1025.2(0.2/3h) 19 -- -- --
19:00 12.8 11.8 8.2 NNE 11.1 -- 18.5 74 1024.9(-0.2/3h) 20 -- -- --
18:00 13.3 12.4 8.4 N 11.1 -- 22.2 72 1024.9(-0.4/3h) 20 -- trace/12h
NA
17:00 13.7 12.9 9.0 N 11.1 -- 18.5 73 1024.9(-0.6/3h) 15 -- -- --
16:00 14.4 13.5 9.2 N 13.0 -- 22.2 71 1025(-0.5/3h) 17 -- -- --
15:00 14.7 13.7 9.5 N 14.8 -- 20.4 71 1025.4(-0.5/3h) 20 -- -- NA
14:00 14.9 14 8.8 N 14.8 -- 20.4 67 1025.5(-0.4/3h) 16 -- -- --
13:00 15.3 14.5 6.7 N 14.8 -- 18.5 56 1025.5(-0.7/3h) 19 -- -- NA
12:00 15.6 15 7.5 N 13.0 -- 16.7 58 1025.9(-0.6/3h) 20 -- trace/6h
NA
11:00 16.1 15.8 7.3 NE 11.1 -- 16.7 56 1025.9(-0.8/3h) 20 -- -- Il y a de la pluie faible et continue à la station au moment de l'observation
10:00 14.9 14.4 7.0 N 11.1 -- 16.7 59 1026.4(-0.3/3h) 19 -- -- NA
09:00 14.8 14.5 6.9 N 9.3 -- 14.8 59 1026.5(0.0/3h) 20 -- -- --
08:00 14.2 14 6.0 NE 7.4 -- 11.1 58 1026.7(0.0/3h) 19 -- -- --
07:00 13.1 12.8 8.0 NE 7.4 -- 9.3 71 1026.7(0.2/3h) 15 -- -- --
06:00 11.8 11.8 9.0 NE 3.7 -- 5.6 83 1026.5(0.2/3h) 13 -- -- --
05:00 8.4 8.4 6.9 NNO 1.9 -- 1.9 90 1026.7(-0.1/3h) 19 -- -- --
04:00 7.3 7.3 6.0 NNO 1.9 -- 3.7 91 1026.5(-0.4/3h) 15 -- -- --
03:00 7.9 7.9 6.3 NNO 1.9 -- 5.6 90 1026.2(-0.9/3h) 14 -- -- --
02:00 8.0 8.0 6.7 NNO 1.9 -- 3.7 91 1026.5(-0.7/3h) 15 -- -- --
01:00 9.4 9.4 8.3 NNE 3.7 -- 5.6 93 1026.9(-0.8/3h) 11 -- -- --
00:00 9.1 9.1 7.7 NE 3.7 -- 14.8 91 1027.2(-0.4/3h) 12 -- -- --

1 Coordinated Universal Time. Actuellement il est 12:00 locale et 10:00 UTC.

2 Le vent souffle depuis la direction indiquée vers la direction oposée.

3 Les rafales max. sont disponible 40 min après l'heure du relevé.

4 Pour les stations d'altitude (plus de 600m) le géopotentiel du niveau le plus proche de la pression obligatoire est indiqué.

5 Les stations disposant d'un diffuseur peuvent indiquer "trace". Cela signifie que des précipitations ont touchés le sol mais que la quantité est inférieure à 0.1 mm.

Récapitulatif de la journée
Température [°C] Vent [km/h] Ensoleillement4 [h] Precipitations totale5 [mm] Pression [Hpa]
Min1 Max.2 Moy.3 Max. Min Max.
6.8 16.2 0 22.2 0 h 0 min 0 1024.9 1027.2

1 Température minimale relevée entre 18:00 UTC la veille et 18:00 UTC le jour donné.

2 Température maximale relevée entre 06:00 UTC le jour donné et 06:00 UTC le lendemain.

3 Vent moyen de la journée basé sur les relevés horaires.

4 Ensoleillement en heures relevé entre 06:00 UTC la veille et 06:00 UTC le jour donné.

5 Précipitations totales tombées entre 06:00 UTC la jour donné et 06:00 UTC le lendemain.

Graphiques horaires